Charter Quote
Worldwide +1-877-727-2538 Call
Select Language Lang
SAFETY RELIABILITY EXPERIENCE

Private Jet Charter Services - Tongren (ZUTR)

Paramount Business Jets offers private jet charter flights and luxury airliner charters to and from Tongren.

AIRPORT INFORMATION
ICAOZUTR
LOCATIONTongren, China
FACILITY TYPEAIRPORT

At Paramount Business Jets you can hire chartered private jets to and from Tongren with as little as 4 hours of notice. All flights booked via Paramount Business Jets are operated by certified direct air carriers that meet and exceed the FAA part 135 and 121 protocol or a foreign equivalent safety authority. Furthermore, Paramount Business Jets subscribes to ARGUS for their third party safety checks of operators, aircraft, and crews prior each and every flight to and from Tongren and worldwide.

  • Quote a trip using Tongren or call us 24/7 - 365 days a year at +1-877-727-2538.
Questions? Call +1-877-727-2538

METAR Weather Data at Tongren, ZUTR

STATIONZUTR
OBSERVEDFri Aug 16, 02:00 UTC
NOWMon Jul 22, 10:08 UTC
AGE51992:08 hr ago
WINDNE at 16 mph
VISIBILITY16 miles
CLOUDSmostly cloudy
TEMP79°F (26°C)
DEWPT68°F (20°C)
HUMIDITY70%
BAROMETER1005 hPa (29.68 in Hg)
METARZUTR 160200Z 05007MPS 9999 SCT016 BKN040 26/20 Q1005 NOSIG

Call us on +1-877-727-2538 (24 Hours) to Hire a Private Jet or Get a Quick Quote.

Find Airports Near any Location

Processing
...